FLH409 KHXD-KROG
Flight info
| Callsign | FLH409 |
|---|---|
| Flight time | N/A |
| Altitude | 43000 |
| Route | FILOX HANKO MEMFS ZALDA |
| Aircraft | C700/M-SBDGHM1RWXY/LB2 |
Departure
| Time | 2026-04-23 00:47 |
|---|---|
| Airport | Hilton Head Airport (KHXD) |
Arrival
| Time | N/A |
|---|---|
| Airport | Rogers Municipal Airport-Carter Field (KROG) |
| Time | Latitude | Longitude | Altitude | Speed | Heading |
|---|---|---|---|---|---|
| 2026-04-23 00:40 | 32.22205 | -80.69740 | 18 ft | 0 kts | 114° |
| 2026-04-23 00:44 | 32.22204 | -80.69738 | 18 ft | 2 kts | 119° |
| 2026-04-23 00:44 | 32.22190 | -80.69752 | 19 ft | 5 kts | 293° |
| 2026-04-23 00:44 | 32.22252 | -80.69747 | 18 ft | 14 kts | 24° |
| 2026-04-23 00:45 | 32.22365 | -80.69682 | 19 ft | 22 kts | 26° |
| 2026-04-23 00:45 | 32.22520 | -80.69592 | 23 ft | 25 kts | 26° |
| 2026-04-23 00:45 | 32.22664 | -80.69510 | 21 ft | 21 kts | 26° |
| 2026-04-23 00:45 | 32.22781 | -80.69443 | 20 ft | 17 kts | 26° |
| 2026-04-23 00:46 | 32.22882 | -80.69384 | 18 ft | 16 kts | 26° |
| 2026-04-23 00:46 | 32.22970 | -80.69333 | 16 ft | 9 kts | 26° |
| 2026-04-23 00:46 | 32.23020 | -80.69311 | 16 ft | 7 kts | 351° |
| 2026-04-23 00:46 | 32.23051 | -80.69367 | 16 ft | 9 kts | 289° |
| 2026-04-23 00:47 | 32.23018 | -80.69413 | 15 ft | 8 kts | 207° |
| 2026-04-23 00:47 | 32.22803 | -80.69536 | 19 ft | 81 kts | 206° |
| 2026-04-23 00:47 | 32.21988 | -80.70012 | 164 ft | 171 kts | 206° |
| 2026-04-23 00:47 | 32.20773 | -80.70717 | 1005 ft | 217 kts | 205° |
| 2026-04-23 00:48 | 32.19489 | -80.71843 | 2055 ft | 238 kts | 233° |
| 2026-04-23 00:48 | 32.18961 | -80.73650 | 3301 ft | 237 kts | 261° |
| 2026-04-23 00:48 | 32.18767 | -80.75588 | 4443 ft | 240 kts | 263° |
| 2026-04-23 00:48 | 32.18581 | -80.77574 | 5895 ft | 245 kts | 266° |
| 2026-04-23 00:49 | 32.18775 | -80.79459 | 7221 ft | 250 kts | 287° |
| 2026-04-23 00:49 | 32.19160 | -80.80780 | 8156 ft | 253 kts | 288° |
| 2026-04-23 00:49 | 32.19538 | -80.82382 | 9280 ft | 255 kts | 282° |
| 2026-04-23 00:49 | 32.19874 | -80.84468 | 10559 ft | 261 kts | 280° |
| 2026-04-23 00:50 | 32.20200 | -80.86602 | 11721 ft | 269 kts | 280° |
| 2026-04-23 00:50 | 32.20559 | -80.88805 | 12826 ft | 277 kts | 281° |
| 2026-04-23 00:50 | 32.20965 | -80.91099 | 13913 ft | 286 kts | 281° |
| 2026-04-23 00:50 | 32.21341 | -80.93441 | 14876 ft | 294 kts | 281° |
| 2026-04-23 00:51 | 32.21728 | -80.95842 | 15819 ft | 301 kts | 282° |
| 2026-04-23 00:51 | 32.22146 | -80.98296 | 16757 ft | 308 kts | 283° |
| 2026-04-23 00:51 | 32.22564 | -81.00795 | 17733 ft | 313 kts | 282° |
| 2026-04-23 00:51 | 32.22982 | -81.03350 | 18624 ft | 320 kts | 282° |
| 2026-04-23 00:52 | 32.23412 | -81.05941 | 19499 ft | 321 kts | 283° |
| 2026-04-23 00:52 | 32.23840 | -81.08531 | 20384 ft | 322 kts | 282° |
| 2026-04-23 00:52 | 32.24259 | -81.11130 | 21256 ft | 322 kts | 282° |
| 2026-04-23 00:52 | 32.24687 | -81.13734 | 22102 ft | 323 kts | 282° |
| 2026-04-23 00:53 | 32.25447 | -81.18346 | 23558 ft | 325 kts | 282° |
| 2026-04-23 00:53 | 32.25881 | -81.20973 | 24236 ft | 328 kts | 282° |
| 2026-04-23 00:53 | 32.26309 | -81.23628 | 24833 ft | 331 kts | 282° |
| 2026-04-23 00:54 | 32.26749 | -81.26318 | 25417 ft | 335 kts | 282° |
| 2026-04-23 00:54 | 32.27194 | -81.29039 | 25991 ft | 339 kts | 282° |
| 2026-04-23 00:54 | 32.27641 | -81.31788 | 26552 ft | 342 kts | 283° |
| 2026-04-23 00:54 | 32.28098 | -81.34561 | 27092 ft | 346 kts | 282° |
| 2026-04-23 00:55 | 32.28541 | -81.37371 | 27641 ft | 349 kts | 282° |
| 2026-04-23 00:55 | 32.29004 | -81.40208 | 28169 ft | 353 kts | 283° |